createdAt,value
2022-09-28T00:00:42.185Z,7.63
2022-09-28T00:03:09.435Z,7.63
2022-09-28T00:05:36.377Z,7.82
2022-09-28T00:08:03.315Z,8.15
2022-09-28T00:10:30.137Z,7.93
2022-09-28T00:13:00.833Z,7.75
2022-09-28T00:15:27.763Z,8.60
2022-09-28T00:17:54.650Z,8.38
2022-09-28T00:20:22.865Z,8.43
2022-09-28T00:22:49.717Z,7.95
2022-09-28T00:25:17.105Z,8.60
2022-09-28T00:27:51.572Z,7.85
2022-09-28T00:30:18.478Z,8.73
2022-09-28T00:32:45.343Z,8.60
2022-09-28T00:35:12.219Z,8.90
2022-09-28T00:37:39.347Z,8.18
2022-09-28T00:40:06.426Z,8.27
2022-09-28T00:42:33.417Z,8.30
2022-09-28T00:45:00.214Z,8.32
2022-09-28T00:47:31.467Z,8.13
2022-09-28T00:49:58.358Z,9.38
2022-09-28T00:52:30.587Z,7.93
2022-09-28T00:54:58.311Z,7.60
2022-09-28T00:57:25.813Z,7.13
2022-09-28T00:59:52.856Z,7.20
2022-09-28T01:02:20.134Z,6.82
2022-09-28T01:04:47.413Z,6.57
2022-09-28T01:07:14.697Z,6.25
2022-09-28T01:09:41.798Z,5.68
2022-09-28T01:12:08.888Z,5.82
2022-09-28T01:14:36.074Z,6.18
2022-09-28T01:17:26.073Z,5.90
2022-09-28T01:20:15.626Z,6.18
2022-09-28T01:23:01.336Z,5.72
2022-09-28T01:25:28.355Z,6.38
2022-09-28T01:27:59.756Z,5.68
2022-09-28T01:30:26.827Z,6.50
2022-09-28T01:32:56.649Z,6.20
2022-09-28T01:35:26.456Z,5.60
2022-09-28T01:37:56.978Z,5.95
2022-09-28T01:40:26.579Z,5.97
2022-09-28T01:42:56.015Z,6.22
2022-09-28T01:45:31.550Z,5.32
2022-09-28T01:48:00.312Z,5.82
2022-09-28T01:50:28.611Z,5.55
2022-09-28T01:52:59.681Z,5.53
2022-09-28T01:55:42.191Z,5.63
2022-09-28T01:58:12.447Z,5.80
2022-09-28T02:00:42.407Z,5.78
2022-09-28T02:03:17.026Z,5.65
2022-09-28T02:05:49.542Z,5.68
2022-09-28T02:08:27.118Z,5.07
2022-09-28T02:10:54.163Z,5.13
2022-09-28T02:13:24.434Z,5.10
2022-09-28T02:16:03.643Z,5.10
2022-09-28T02:18:30.824Z,5.32
2022-09-28T02:21:13.581Z,5.65
2022-09-28T02:23:42.306Z,5.38
2022-09-28T02:26:10.822Z,5.63
2022-09-28T02:28:38.186Z,5.25
2022-09-28T02:31:05.333Z,5.28
2022-09-28T02:33:37.139Z,4.90
2022-09-28T02:36:04.349Z,5.10
2022-09-28T02:38:36.858Z,4.80
2022-09-28T02:41:06.060Z,5.13
2022-09-28T02:43:50.361Z,5.05
2022-09-28T02:46:36.987Z,5.20
2022-09-28T02:49:22.266Z,5.22
2022-09-28T02:51:54.874Z,4.93
2022-09-28T02:54:38.175Z,5.15
2022-09-28T02:57:18.149Z,5.00
2022-09-28T02:59:50.669Z,5.37
2022-09-28T03:02:23.570Z,4.63
2022-09-28T03:04:50.414Z,5.07
2022-09-28T03:07:28.886Z,5.10
2022-09-28T03:09:58.765Z,5.30
2022-09-28T03:12:26.384Z,4.60
2022-09-28T03:15:06.428Z,5.57
2022-09-28T03:17:33.406Z,5.22
2022-09-28T03:20:00.271Z,5.25
2022-09-28T03:22:27.150Z,4.70
2022-09-28T03:24:54.065Z,5.20
2022-09-28T03:27:21.064Z,5.32
2022-09-28T03:29:47.846Z,5.22
2022-09-28T03:32:14.695Z,6.40
2022-09-28T03:34:42.480Z,5.22
2022-09-28T03:37:09.459Z,5.65
2022-09-28T03:39:36.987Z,5.38
2022-09-28T03:42:04.159Z,6.00
2022-09-28T03:44:34.336Z,5.95
2022-09-28T03:47:01.402Z,5.38
2022-09-28T03:49:28.265Z,5.35
2022-09-28T03:51:55.139Z,5.55
2022-09-28T03:54:24.169Z,5.53
2022-09-28T03:56:52.036Z,5.35
2022-09-28T03:59:19.199Z,5.40
2022-09-28T04:01:48.745Z,5.28
2022-09-28T04:04:15.622Z,5.07
2022-09-28T04:06:42.721Z,4.72
2022-09-28T04:09:09.849Z,5.22
2022-09-28T04:11:59.460Z,5.80
2022-09-28T04:14:23.712Z,5.47
2022-09-28T04:16:54.381Z,5.43
2022-09-28T04:19:23.082Z,5.18
2022-09-28T04:22:10.535Z,5.30
2022-09-28T04:24:38.403Z,5.00
2022-09-28T04:27:25.781Z,5.40
2022-09-28T04:29:53.947Z,4.65
2022-09-28T04:32:21.751Z,5.32
2022-09-28T04:34:48.612Z,4.20
2022-09-28T04:37:15.737Z,4.90
2022-09-28T04:39:48.084Z,5.65
2022-09-28T04:42:17.789Z,4.97
2022-09-28T04:44:45.055Z,4.93
2022-09-28T04:47:12.425Z,4.60
2022-09-28T04:49:57.899Z,5.57
2022-09-28T04:52:35.923Z,4.80
2022-09-28T04:55:02.804Z,4.93
2022-09-28T04:57:29.759Z,4.82
2022-09-28T04:59:56.547Z,5.22
2022-09-28T05:02:23.542Z,5.60
2022-09-28T05:05:08.829Z,4.53
2022-09-28T05:07:57.968Z,5.40
2022-09-28T05:10:24.838Z,5.45
2022-09-28T05:12:52.728Z,5.05
2022-09-28T05:15:19.567Z,5.00
2022-09-28T05:17:47.516Z,4.53
2022-09-28T05:20:27.134Z,5.63
2022-09-28T05:22:54.022Z,5.40
2022-09-28T05:25:22.028Z,5.00
2022-09-28T05:28:07.235Z,4.72
2022-09-28T05:30:40.335Z,4.90
2022-09-28T05:33:27.614Z,4.65
2022-09-28T05:36:10.601Z,5.03
2022-09-28T05:38:37.521Z,4.75
2022-09-28T05:41:06.794Z,5.13
2022-09-28T05:43:34.090Z,5.28
2022-09-28T05:46:03.822Z,5.05
2022-09-28T05:48:30.928Z,5.28
2022-09-28T05:50:58.911Z,4.80
2022-09-28T05:53:26.421Z,4.90
2022-09-28T05:55:53.308Z,5.43
2022-09-28T05:58:20.193Z,4.90
2022-09-28T06:00:47.035Z,5.22
2022-09-28T06:03:14.390Z,5.00
2022-09-28T06:05:41.334Z,4.72
2022-09-28T06:08:08.707Z,5.30
2022-09-28T06:10:35.629Z,4.82
2022-09-28T06:13:03.167Z,4.60
2022-09-28T06:15:31.427Z,4.70
2022-09-28T06:18:00.892Z,5.17
2022-09-28T06:20:41.879Z,5.00
2022-09-28T06:23:16.191Z,5.28
2022-09-28T06:25:43.433Z,4.28
2022-09-28T06:28:14.371Z,4.10
2022-09-28T06:30:42.035Z,3.95
2022-09-28T06:33:12.915Z,3.92
2022-09-28T06:35:40.901Z,4.25
2022-09-28T06:38:08.311Z,3.55
2022-09-28T06:40:35.266Z,4.13
2022-09-28T06:43:03.395Z,3.75
2022-09-28T06:45:52.623Z,3.80
2022-09-28T06:48:25.884Z,3.42
2022-09-28T06:50:52.732Z,3.65
2022-09-28T06:53:33.707Z,3.33
2022-09-28T06:56:16.901Z,4.75
2022-09-28T06:58:44.534Z,4.20
2022-09-28T07:01:12.195Z,3.53
2022-09-28T07:04:02.081Z,3.37
2022-09-28T07:06:48.162Z,3.28
2022-09-28T07:09:51.310Z,3.37
2022-09-28T07:12:50.727Z,3.58
2022-09-28T07:15:32.519Z,3.30
2022-09-28T07:18:04.127Z,3.50
2022-09-28T07:20:38.900Z,3.53
2022-09-28T07:23:19.109Z,3.22
2022-09-28T07:26:07.713Z,3.53
2022-09-28T07:28:56.087Z,4.30
2022-09-28T07:31:38.191Z,6.45
2022-09-28T07:34:14.184Z,4.97
2022-09-28T07:37:01.813Z,3.75
2022-09-28T07:39:29.141Z,3.78
2022-09-28T07:42:02.417Z,3.75
2022-09-28T07:44:29.927Z,3.53
2022-09-28T07:46:57.813Z,3.50
2022-09-28T07:49:40.914Z,3.83
2022-09-28T07:52:15.430Z,3.17
2022-09-28T07:55:06.640Z,3.60
2022-09-28T07:57:56.451Z,3.58
2022-09-28T08:00:48.299Z,3.22
2022-09-28T08:03:19.985Z,3.40
2022-09-28T08:05:48.302Z,3.03
2022-09-28T08:08:15.798Z,3.15
2022-09-28T08:10:46.886Z,3.15
2022-09-28T08:13:40.243Z,3.00
2022-09-28T08:16:20.778Z,3.22
2022-09-28T08:18:55.524Z,3.03
2022-09-28T08:21:41.871Z,2.70
2022-09-28T08:24:08.577Z,3.08
2022-09-28T08:26:36.151Z,2.88
2022-09-28T08:29:03.304Z,3.10
2022-09-28T08:31:59.540Z,3.40
2022-09-28T08:34:37.597Z,3.50
2022-09-28T08:37:04.763Z,3.22
2022-09-28T08:39:37.366Z,3.40
2022-09-28T08:42:31.760Z,3.25
2022-09-28T08:45:29.181Z,3.30
2022-09-28T08:48:56.210Z,3.35
2022-09-28T08:52:08.115Z,3.38
2022-09-28T08:54:58.298Z,3.10
2022-09-28T08:57:36.250Z,3.78
2022-09-28T09:00:09.606Z,3.22
2022-09-28T09:02:39.897Z,3.20
2022-09-28T09:05:21.524Z,3.13
2022-09-28T09:08:08.207Z,3.05
2022-09-28T09:10:38.418Z,3.65
2022-09-28T09:13:12.563Z,3.83
2022-09-28T09:15:58.317Z,2.97
2022-09-28T09:18:54.058Z,3.67
2022-09-28T09:21:35.680Z,3.30
2022-09-28T09:24:27.579Z,3.80
2022-09-28T09:27:05.841Z,3.65
2022-09-28T09:29:47.246Z,3.45
2022-09-28T09:32:20.182Z,3.65
2022-09-28T09:34:47.913Z,2.92
2022-09-28T09:37:55.258Z,3.30
2022-09-28T09:40:43.677Z,3.80
2022-09-28T09:43:32.088Z,3.75
2022-09-28T09:46:34.371Z,4.72
2022-09-28T09:51:51.664Z,4.43
2022-09-28T09:54:18.902Z,4.50
2022-09-28T09:56:49.815Z,5.07
2022-09-28T09:59:33.759Z,4.28
2022-09-28T10:02:12.989Z,3.88
2022-09-28T10:04:52.903Z,4.72
2022-09-28T10:07:30.073Z,4.65
2022-09-28T10:09:58.548Z,3.92
2022-09-28T10:12:49.671Z,4.38
2022-09-28T10:15:21.021Z,4.50
2022-09-28T10:18:12.133Z,5.00
2022-09-28T10:20:58.012Z,4.53
2022-09-28T10:23:55.775Z,4.60
2022-09-28T10:26:32.574Z,5.32
2022-09-28T10:29:01.653Z,5.65
2022-09-28T10:31:42.132Z,4.78
2022-09-28T10:34:27.624Z,5.47
2022-09-28T10:37:00.769Z,5.22
2022-09-28T10:39:33.669Z,4.95
2022-09-28T10:42:04.469Z,5.45
2022-09-28T10:44:35.682Z,5.72
2022-09-28T10:47:15.081Z,5.43
2022-09-28T10:49:47.071Z,5.95
2022-09-28T10:52:35.610Z,5.30
2022-09-28T10:55:03.648Z,6.30
2022-09-28T10:57:36.858Z,5.78
2022-09-28T11:00:28.822Z,5.13
2022-09-28T11:03:19.287Z,5.72
2022-09-28T11:05:56.532Z,4.90
2022-09-28T11:08:27.781Z,4.80
2022-09-28T11:11:07.144Z,4.68
2022-09-28T11:13:52.861Z,4.65
2022-09-28T11:16:30.850Z,5.07
2022-09-28T11:19:04.819Z,5.35
2022-09-28T11:21:40.413Z,4.95
2022-09-28T11:24:21.479Z,4.55
2022-09-28T11:26:50.991Z,4.05
2022-09-28T11:29:24.805Z,4.43
2022-09-28T11:32:14.905Z,4.32
2022-09-28T11:35:03.185Z,4.28
2022-09-28T11:37:35.233Z,4.25
2022-09-28T11:40:12.939Z,4.75
2022-09-28T11:42:58.667Z,3.88
2022-09-28T11:45:25.621Z,3.95
2022-09-28T11:47:56.074Z,4.13
2022-09-28T11:50:41.803Z,4.27
2022-09-28T11:53:09.820Z,3.80
2022-09-28T11:55:40.779Z,4.30
2022-09-28T11:58:13.177Z,4.13
2022-09-28T12:00:45.345Z,4.10
2022-09-28T12:03:20.074Z,3.92
2022-09-28T12:05:51.149Z,4.65
2022-09-28T12:08:20.835Z,4.65
2022-09-28T12:11:00.921Z,3.72
2022-09-28T12:13:52.451Z,3.97
2022-09-28T12:17:00.980Z,4.15
2022-09-28T12:19:23.492Z,4.05
2022-09-28T12:21:52.248Z,4.70
2022-09-28T12:24:26.893Z,4.55
2022-09-28T12:26:59.547Z,4.70
2022-09-28T12:29:28.252Z,4.20
2022-09-28T12:31:55.547Z,3.67
2022-09-28T12:34:22.781Z,3.67
2022-09-28T12:36:50.024Z,3.78
2022-09-28T12:39:56.410Z,3.95
2022-09-28T12:42:30.180Z,4.10
2022-09-28T12:45:17.733Z,3.63
2022-09-28T12:47:53.330Z,3.75
2022-09-28T12:50:39.554Z,3.90
2022-09-28T12:53:27.331Z,4.35
2022-09-28T12:56:02.400Z,4.28
2022-09-28T12:58:30.515Z,3.63
2022-09-28T13:01:19.563Z,3.65
2022-09-28T13:03:57.125Z,4.00
2022-09-28T13:06:30.176Z,3.92
2022-09-28T13:09:02.178Z,3.63
2022-09-28T13:11:39.780Z,4.45
2022-09-28T13:14:19.833Z,4.57
2022-09-28T13:17:01.137Z,3.78
2022-09-28T13:22:14.354Z,4.45
2022-09-28T13:24:44.905Z,4.15
2022-09-28T13:27:33.251Z,5.25
2022-09-28T13:30:03.207Z,4.60
2022-09-28T13:32:31.707Z,3.90
2022-09-28T13:34:59.014Z,4.47
2022-09-28T13:37:26.181Z,3.75
2022-09-28T13:39:59.266Z,3.67
2022-09-28T13:42:44.996Z,4.55
2022-09-28T13:45:23.876Z,6.60
2022-09-28T13:47:56.168Z,4.47
2022-09-28T13:50:42.050Z,4.97
2022-09-28T13:53:08.965Z,5.47
2022-09-28T13:55:40.169Z,5.47
2022-09-28T13:58:16.479Z,5.13
2022-09-28T14:00:51.656Z,5.65
2022-09-28T14:03:24.462Z,5.63
2022-09-28T14:05:54.478Z,6.60
2022-09-28T14:08:30.435Z,5.57
2022-09-28T14:11:17.318Z,5.28
2022-09-28T14:13:44.379Z,5.30
2022-09-28T14:16:17.909Z,5.65
2022-09-28T14:18:56.217Z,5.97
2022-09-28T14:21:41.600Z,6.07
2022-09-28T14:24:08.830Z,5.40
2022-09-28T14:26:56.506Z,6.05
2022-09-28T14:29:28.757Z,5.47
2022-09-28T14:32:03.977Z,6.25
2022-09-28T14:34:31.577Z,6.10
2022-09-28T14:37:17.060Z,6.40
2022-09-28T14:40:03.614Z,6.55
2022-09-28T14:42:30.628Z,7.63
2022-09-28T14:45:06.571Z,6.93
2022-09-28T14:47:37.466Z,5.53
2022-09-28T14:50:27.397Z,5.00
2022-09-28T14:53:04.380Z,4.70
2022-09-28T14:55:48.210Z,5.13
2022-09-28T14:58:17.766Z,4.15
2022-09-28T15:00:46.128Z,4.78
2022-09-28T15:03:13.139Z,4.20
2022-09-28T15:05:44.682Z,4.75
2022-09-28T15:08:13.319Z,4.82
2022-09-28T15:10:45.655Z,5.63
2022-09-28T15:13:17.124Z,5.03
2022-09-28T15:15:47.442Z,6.30
2022-09-28T15:18:33.477Z,5.78
2022-09-28T15:21:01.833Z,5.35
2022-09-28T15:23:36.151Z,6.25
2022-09-28T15:26:08.043Z,5.40
2022-09-28T15:28:36.586Z,4.68
2022-09-28T15:31:04.973Z,5.30
2022-09-28T15:33:54.100Z,5.75
2022-09-28T15:36:29.131Z,5.43
2022-09-28T15:39:04.840Z,5.38
2022-09-28T15:41:33.295Z,5.00
2022-09-28T15:44:12.802Z,5.35
2022-09-28T15:46:41.967Z,6.18
2022-09-28T15:49:23.211Z,5.32
2022-09-28T15:51:52.374Z,3.95
2022-09-28T15:54:25.437Z,4.57
2022-09-28T15:56:53.137Z,4.60
2022-09-28T15:59:30.951Z,5.05
2022-09-28T16:02:08.220Z,4.53
2022-09-28T16:04:40.555Z,4.40
2022-09-28T16:07:12.126Z,4.25
2022-09-28T16:09:55.177Z,4.03
2022-09-28T16:12:22.787Z,4.45
2022-09-28T16:14:54.901Z,3.85
2022-09-28T16:17:35.234Z,3.88
2022-09-28T16:20:19.341Z,4.10
2022-09-28T16:22:47.097Z,4.05
2022-09-28T16:25:22.769Z,3.65
2022-09-28T16:27:53.056Z,4.40
2022-09-28T16:30:22.307Z,4.93
2022-09-28T16:32:49.718Z,4.57
2022-09-28T16:35:21.473Z,4.78
2022-09-28T16:37:49.850Z,4.22
2022-09-28T16:40:16.885Z,4.20
2022-09-28T16:42:48.820Z,4.57
2022-09-28T16:45:20.707Z,4.38
2022-09-28T16:47:53.031Z,4.80
2022-09-28T16:50:21.994Z,4.78
2022-09-28T16:53:31.802Z,4.53
2022-09-28T16:55:59.148Z,4.53
2022-09-28T16:58:26.394Z,4.97
2022-09-28T17:00:55.784Z,5.00
2022-09-28T17:03:23.603Z,5.10
2022-09-28T17:05:51.320Z,5.03
2022-09-28T17:08:20.087Z,5.30
2022-09-28T17:11:13.988Z,5.20
2022-09-28T17:13:42.696Z,5.07
2022-09-28T17:16:12.705Z,5.15
2022-09-28T17:18:40.252Z,5.75
2022-09-28T17:21:10.236Z,6.18
2022-09-28T17:23:37.240Z,5.93
2022-09-28T17:26:05.111Z,6.35
2022-09-28T17:28:33.815Z,6.22
2022-09-28T17:31:00.923Z,5.90
2022-09-28T17:33:28.567Z,5.68
2022-09-28T17:36:05.296Z,6.22
2022-09-28T17:38:36.465Z,5.80
2022-09-28T17:41:06.088Z,5.80
2022-09-28T17:43:35.407Z,5.65
2022-09-28T17:46:03.733Z,5.78
2022-09-28T17:48:31.414Z,6.30
2022-09-28T17:51:00.420Z,6.03
2022-09-28T17:53:27.595Z,6.20
2022-09-28T17:55:54.423Z,5.97
2022-09-28T17:58:22.998Z,6.25
2022-09-28T18:00:51.075Z,6.03
2022-09-28T18:03:20.483Z,6.38
2022-09-28T18:05:54.065Z,6.25
2022-09-28T18:08:21.816Z,6.88
2022-09-28T18:10:49.930Z,7.05
2022-09-28T18:13:18.386Z,7.50
2022-09-28T18:15:45.637Z,8.27
2022-09-28T18:18:13.130Z,7.97
2022-09-28T18:20:41.512Z,7.50
2022-09-28T18:23:08.473Z,7.18
2022-09-28T18:25:35.425Z,6.85
2022-09-28T18:28:02.524Z,7.15
2022-09-28T18:30:29.523Z,7.40
2022-09-28T18:32:56.487Z,7.78
2022-09-28T18:35:23.699Z,6.88
2022-09-28T18:37:50.937Z,7.28
2022-09-28T18:40:18.169Z,6.88
2022-09-28T18:42:45.143Z,7.32
2022-09-28T18:45:12.093Z,6.53
2022-09-28T18:47:39.431Z,6.85
2022-09-28T18:50:06.756Z,6.15
2022-09-28T18:52:36.079Z,6.65
2022-09-28T18:55:03.201Z,7.15
2022-09-28T18:57:33.339Z,7.38
2022-09-28T19:00:00.829Z,6.70
2022-09-28T19:02:28.000Z,7.20
2022-09-28T19:04:55.159Z,6.85
2022-09-28T19:07:22.073Z,6.00
2022-09-28T19:09:49.091Z,6.18
2022-09-28T19:12:16.147Z,6.57
2022-09-28T19:14:43.159Z,6.38
2022-09-28T19:17:10.415Z,6.40
2022-09-28T19:19:37.291Z,5.97
2022-09-28T19:22:04.691Z,6.90
2022-09-28T19:24:32.000Z,6.97
2022-09-28T19:26:58.902Z,7.60
2022-09-28T19:29:25.806Z,7.45
2022-09-28T19:31:52.721Z,7.22
2022-09-28T19:34:19.740Z,6.78
2022-09-28T19:36:46.755Z,7.28
2022-09-28T19:39:14.892Z,6.80
2022-09-28T19:41:44.784Z,8.77
2022-09-28T19:44:15.838Z,6.63
2022-09-28T19:46:42.939Z,6.22
2022-09-28T19:49:11.417Z,7.88
2022-09-28T19:51:46.931Z,6.68
2022-09-28T19:54:26.648Z,7.40
2022-09-28T19:56:53.717Z,6.75
2022-09-28T19:59:21.456Z,7.03
2022-09-28T20:01:49.014Z,6.80
2022-09-28T20:04:16.034Z,6.55
2022-09-28T20:06:43.010Z,7.43
2022-09-28T20:09:09.793Z,7.20
2022-09-28T20:11:37.158Z,7.22
2022-09-28T20:14:09.808Z,6.95
2022-09-28T20:16:37.044Z,9.10
2022-09-28T20:19:04.979Z,7.85
2022-09-28T20:21:31.794Z,8.05
2022-09-28T20:23:58.659Z,7.95
2022-09-28T20:26:26.448Z,8.32
2022-09-28T20:28:54.065Z,7.85
2022-09-28T20:31:22.238Z,8.25
2022-09-28T20:33:49.878Z,8.77
2022-09-28T20:36:18.326Z,9.02
2022-09-28T20:38:47.153Z,9.38
2022-09-28T20:41:14.846Z,10.05
2022-09-28T20:43:41.638Z,10.20
2022-09-28T20:46:10.528Z,10.05
2022-09-28T20:48:37.556Z,10.35
2022-09-28T20:51:12.193Z,10.98
2022-09-28T20:53:39.932Z,9.68
2022-09-28T20:56:08.044Z,9.88
2022-09-28T20:58:35.389Z,9.60
2022-09-28T21:01:08.024Z,9.27
2022-09-28T21:03:35.381Z,9.40
2022-09-28T21:06:02.498Z,9.77
2022-09-28T21:08:29.979Z,9.95
2022-09-28T21:10:57.028Z,8.48
2022-09-28T21:13:24.648Z,8.68
2022-09-28T21:15:51.973Z,8.52
2022-09-28T21:18:19.355Z,8.32
2022-09-28T21:20:46.484Z,8.13
2022-09-28T21:23:13.633Z,7.20
2022-09-28T21:25:40.920Z,8.13
2022-09-28T21:28:08.491Z,7.75
2022-09-28T21:30:35.422Z,7.13
2022-09-28T21:33:02.262Z,7.22
2022-09-28T21:35:29.345Z,6.60
2022-09-28T21:37:56.277Z,7.30
2022-09-28T21:40:23.149Z,7.35
2022-09-28T21:42:50.050Z,6.80
2022-09-28T21:45:17.128Z,6.97
2022-09-28T21:47:47.666Z,7.95
2022-09-28T21:50:14.470Z,7.32
2022-09-28T21:52:41.391Z,7.70
2022-09-28T21:55:08.387Z,8.00
2022-09-28T21:57:35.176Z,7.28
2022-09-28T22:00:02.526Z,7.85
2022-09-28T22:02:33.999Z,7.00
2022-09-28T22:05:00.853Z,7.25
2022-09-28T22:07:27.652Z,6.35
2022-09-28T22:09:54.462Z,7.30
2022-09-28T22:12:21.327Z,7.30
2022-09-28T22:14:48.164Z,7.22
2022-09-28T22:17:15.053Z,7.88
2022-09-28T22:19:41.983Z,7.45
2022-09-28T22:22:08.977Z,8.02
2022-09-28T22:24:35.908Z,7.60
2022-09-28T22:27:02.652Z,6.97
2022-09-28T22:29:29.519Z,8.07
2022-09-28T22:32:02.495Z,8.80
2022-09-28T22:34:31.829Z,7.90
2022-09-28T22:36:59.068Z,8.98
2022-09-28T22:39:26.025Z,9.25
2022-09-28T22:41:52.956Z,10.40
2022-09-28T22:44:20.011Z,9.30
2022-09-28T22:46:47.122Z,9.77
2022-09-28T22:49:14.117Z,9.77
2022-09-28T22:51:41.123Z,9.63
2022-09-28T22:54:07.996Z,9.40
2022-09-28T22:56:34.865Z,10.23
2022-09-28T22:59:01.725Z,9.02
2022-09-28T23:01:29.599Z,9.57
2022-09-28T23:03:57.534Z,9.70
2022-09-28T23:06:26.215Z,9.55
2022-09-28T23:08:53.422Z,8.40
2022-09-28T23:11:20.333Z,8.57
2022-09-28T23:13:53.786Z,8.98
2022-09-28T23:16:23.610Z,8.40
2022-09-28T23:18:50.605Z,9.03
2022-09-28T23:21:18.674Z,8.45
2022-09-28T23:23:46.752Z,8.90
2022-09-28T23:26:15.016Z,8.48
2022-09-28T23:28:42.387Z,8.18
2022-09-28T23:31:16.525Z,8.82
2022-09-28T23:33:43.474Z,7.93
2022-09-28T23:36:10.509Z,8.23
2022-09-28T23:38:37.390Z,8.10
2022-09-28T23:41:04.266Z,8.32
2022-09-28T23:43:31.184Z,8.38
2022-09-28T23:45:57.961Z,8.35
2022-09-28T23:48:24.761Z,7.82
2022-09-28T23:50:51.567Z,7.28
2022-09-28T23:53:18.454Z,8.18
2022-09-28T23:55:45.328Z,7.78
2022-09-28T23:58:12.120Z,7.82
